createdAt,value
2023-02-04T00:00:31.018Z,100232.53
2023-02-04T00:03:05.843Z,100232.53
2023-02-04T00:05:38.715Z,100222.22
2023-02-04T00:08:11.670Z,100227.31
2023-02-04T00:10:44.530Z,100231.94
2023-02-04T00:13:17.949Z,100229.53
2023-02-04T00:15:51.011Z,100221.59
2023-02-04T00:18:25.445Z,100222.91
2023-02-04T00:20:58.189Z,100217.38
2023-02-04T00:23:30.906Z,100210.25
2023-02-04T00:26:03.867Z,100223.13
2023-02-04T00:28:36.610Z,100221.19
2023-02-04T00:31:09.427Z,100221.34
2023-02-04T00:33:43.917Z,100216.44
2023-02-04T00:36:16.683Z,100216.28
2023-02-04T00:38:50.466Z,100226.06
2023-02-04T00:41:23.227Z,100224.59
2023-02-04T00:43:56.020Z,100214.91
2023-02-04T00:46:30.358Z,100220.09
2023-02-04T00:49:06.605Z,100219.72
2023-02-04T00:51:41.124Z,100226.75
2023-02-04T00:54:15.780Z,100246.94
2023-02-04T00:56:48.528Z,100251.50
2023-02-04T00:59:21.550Z,100268.63
2023-02-04T01:01:54.367Z,100276.53
2023-02-04T01:04:29.986Z,100282.97
2023-02-04T01:07:02.992Z,100292.63
2023-02-04T01:09:39.030Z,100301.16
2023-02-04T01:12:11.848Z,100312.16
2023-02-04T01:14:44.807Z,100312.72
2023-02-04T01:17:18.408Z,100305.59
2023-02-04T01:19:55.267Z,100314.56
2023-02-04T01:22:28.175Z,100316.31
2023-02-04T01:25:01.756Z,100319.75
2023-02-04T01:27:47.405Z,100327.50
2023-02-04T01:30:20.272Z,100331.38
2023-02-04T01:32:53.133Z,100332.63
2023-02-04T01:35:27.343Z,100342.56
2023-02-04T01:38:00.112Z,100348.81
2023-02-04T01:40:33.287Z,100332.75
2023-02-04T01:43:07.010Z,100334.25
2023-02-04T01:45:39.908Z,100346.25
2023-02-04T01:48:20.064Z,100345.06
2023-02-04T01:50:58.070Z,100341.56
2023-02-04T01:53:32.699Z,100338.59
2023-02-04T01:56:16.481Z,100330.28
2023-02-04T01:58:50.164Z,100338.25
2023-02-04T02:01:38.198Z,100338.25
2023-02-04T02:04:13.212Z,100331.44
2023-02-04T02:06:51.890Z,100330.28
2023-02-04T02:09:25.099Z,100335.09
2023-02-04T02:11:58.369Z,100327.72
2023-02-04T02:14:32.252Z,100334.25
2023-02-04T02:17:05.106Z,100325.28
2023-02-04T02:19:40.988Z,100326.13
2023-02-04T02:22:25.290Z,100336.50
2023-02-04T02:24:59.405Z,100338.84
2023-02-04T02:27:32.334Z,100345.53
2023-02-04T02:30:06.236Z,100347.97
2023-02-04T02:32:39.922Z,100352.69
2023-02-04T02:35:13.063Z,100362.19
2023-02-04T02:37:45.891Z,100363.84
2023-02-04T02:40:21.026Z,100370.88
2023-02-04T02:42:55.055Z,100370.16
2023-02-04T02:45:31.510Z,100379.13
2023-02-04T02:48:04.503Z,100384.47
2023-02-04T02:50:37.896Z,100388.44
2023-02-04T02:53:12.910Z,100396.56
2023-02-04T02:55:48.532Z,100388.91
2023-02-04T02:58:29.040Z,100381.16
2023-02-04T03:01:05.599Z,100381.03
2023-02-04T03:03:44.235Z,100387.19
2023-02-04T03:06:20.420Z,100389.34
2023-02-04T03:08:56.833Z,100385.47
2023-02-04T03:11:32.653Z,100384.16
2023-02-04T03:14:06.112Z,100383.34
2023-02-04T03:16:40.483Z,100384.28
2023-02-04T03:19:14.098Z,100384.97
2023-02-04T03:21:47.183Z,100392.19
2023-02-04T03:24:20.103Z,100396.56
2023-02-04T03:26:54.367Z,100393.00
2023-02-04T03:29:28.444Z,100390.72
2023-02-04T03:32:03.170Z,100394.75
2023-02-04T03:34:36.088Z,100394.81
2023-02-04T03:37:10.413Z,100400.06
2023-02-04T03:39:43.460Z,100396.47
2023-02-04T03:42:17.774Z,100408.03
2023-02-04T03:44:50.847Z,100409.47
2023-02-04T03:47:23.677Z,100396.03
2023-02-04T03:49:56.460Z,100408.59
2023-02-04T03:52:29.250Z,100427.47
2023-02-04T03:55:02.042Z,100435.50
2023-02-04T03:57:36.151Z,100443.81
2023-02-04T04:00:10.564Z,100458.91
2023-02-04T04:02:46.456Z,100457.81
2023-02-04T04:05:19.389Z,100466.31
2023-02-04T04:07:52.685Z,100468.75
2023-02-04T04:10:25.688Z,100471.94
2023-02-04T04:12:59.860Z,100471.56
2023-02-04T04:15:34.123Z,100492.94
2023-02-04T04:18:07.092Z,100502.78
2023-02-04T04:20:39.892Z,100505.38
2023-02-04T04:23:12.669Z,100503.78
2023-02-04T04:25:45.652Z,100513.78
2023-02-04T04:28:19.896Z,100521.56
2023-02-04T04:30:52.756Z,100523.91
2023-02-04T04:33:25.562Z,100517.09
2023-02-04T04:35:58.541Z,100527.38
2023-02-04T04:38:31.309Z,100520.41
2023-02-04T04:41:04.187Z,100528.09
2023-02-04T04:43:38.407Z,100521.16
2023-02-04T04:46:11.185Z,100519.47
2023-02-04T04:48:43.970Z,100519.56
2023-02-04T04:51:16.855Z,100522.41
2023-02-04T04:53:49.629Z,100515.72
2023-02-04T04:56:22.422Z,100513.94
2023-02-04T04:58:56.587Z,100519.28
2023-02-04T05:01:29.320Z,100520.19
2023-02-04T05:04:03.886Z,100517.06
2023-02-04T05:06:36.669Z,100525.72
2023-02-04T05:09:09.703Z,100520.38
2023-02-04T05:11:42.443Z,100531.41
2023-02-04T05:14:16.585Z,100534.19
2023-02-04T05:16:49.424Z,100541.06
2023-02-04T05:19:22.226Z,100542.97
2023-02-04T05:21:55.120Z,100541.50
2023-02-04T05:24:27.951Z,100546.72
2023-02-04T05:27:00.723Z,100552.69
2023-02-04T05:29:34.883Z,100552.59
2023-02-04T05:32:07.652Z,100568.75
2023-02-04T05:34:40.589Z,100563.06
2023-02-04T05:37:15.360Z,100565.13
2023-02-04T05:39:48.566Z,100571.69
2023-02-04T05:42:21.346Z,100587.06
2023-02-04T05:44:55.580Z,100594.94
2023-02-04T05:47:28.450Z,100600.84
2023-02-04T05:50:01.359Z,100604.75
2023-02-04T05:52:34.205Z,100616.56
2023-02-04T05:55:08.120Z,100602.31
2023-02-04T05:57:41.153Z,100612.69
2023-02-04T06:00:16.035Z,100610.72
2023-02-04T06:02:48.775Z,100609.31
2023-02-04T06:05:22.997Z,100607.16
2023-02-04T06:07:55.834Z,100621.28
2023-02-04T06:10:28.645Z,100632.63
2023-02-04T06:13:01.479Z,100641.63
2023-02-04T06:15:35.644Z,100640.59
2023-02-04T06:18:08.695Z,100651.44
2023-02-04T06:20:41.691Z,100646.03
2023-02-04T06:23:14.585Z,100654.31
2023-02-04T06:25:48.844Z,100662.72
2023-02-04T06:28:21.694Z,100666.31
2023-02-04T06:30:55.986Z,100663.72
2023-02-04T06:33:28.930Z,100680.53
2023-02-04T06:36:01.870Z,100690.16
2023-02-04T06:38:34.778Z,100684.16
2023-02-04T06:41:07.786Z,100678.63
2023-02-04T06:43:40.658Z,100682.09
2023-02-04T06:46:15.561Z,100687.25
2023-02-04T06:48:48.496Z,100696.00
2023-02-04T06:51:21.398Z,100704.31
2023-02-04T06:53:54.237Z,100699.59
2023-02-04T06:56:29.395Z,100708.16
2023-02-04T06:59:03.460Z,100708.84
2023-02-04T07:01:39.803Z,100722.44
2023-02-04T07:04:12.576Z,100717.28
2023-02-04T07:06:45.303Z,100727.72
2023-02-04T07:09:18.101Z,100721.72
2023-02-04T07:11:50.916Z,100728.59
2023-02-04T07:14:23.714Z,100735.53
2023-02-04T07:16:58.725Z,100739.41
2023-02-04T07:19:31.537Z,100743.69
2023-02-04T07:22:04.834Z,100745.78
2023-02-04T07:24:37.840Z,100748.16
2023-02-04T07:27:10.662Z,100753.97
2023-02-04T07:29:43.550Z,100762.81
2023-02-04T07:32:17.684Z,100764.34
2023-02-04T07:34:50.479Z,100768.28
2023-02-04T07:37:23.700Z,100775.81
2023-02-04T07:39:56.552Z,100774.81
2023-02-04T07:42:29.408Z,100785.06
2023-02-04T07:45:11.416Z,100782.53
2023-02-04T07:47:45.766Z,100784.91
2023-02-04T07:50:18.764Z,100781.44
2023-02-04T07:52:51.512Z,100782.88
2023-02-04T07:55:24.348Z,100798.50
2023-02-04T07:57:57.272Z,100795.97
2023-02-04T08:00:30.384Z,100799.25
2023-02-04T08:03:05.108Z,100799.06
2023-02-04T08:05:40.734Z,100803.28
2023-02-04T08:08:13.494Z,100808.38
2023-02-04T08:10:46.304Z,100813.88
2023-02-04T08:13:19.058Z,100816.53
2023-02-04T08:15:51.867Z,100825.69
2023-02-04T08:18:26.109Z,100827.59
2023-02-04T08:20:59.474Z,100837.94
2023-02-04T08:23:33.044Z,100840.97
2023-02-04T08:26:06.143Z,100830.13
2023-02-04T08:28:39.386Z,100838.91
2023-02-04T08:31:12.710Z,100838.06
2023-02-04T08:33:47.102Z,100861.75
2023-02-04T08:36:19.877Z,100872.66
2023-02-04T08:38:52.675Z,100872.91
2023-02-04T08:41:25.557Z,100879.19
2023-02-04T08:43:58.577Z,100880.16
2023-02-04T08:46:31.516Z,100880.06
2023-02-04T08:49:05.816Z,100886.84
2023-02-04T08:51:38.603Z,100882.16
2023-02-04T08:54:11.345Z,100886.88
2023-02-04T08:56:45.007Z,100895.38
2023-02-04T08:59:17.790Z,100900.22
2023-02-04T09:01:52.496Z,100903.13
2023-02-04T09:04:28.388Z,100915.19
2023-02-04T09:07:01.702Z,100920.50
2023-02-04T09:09:34.444Z,100933.19
2023-02-04T09:12:07.223Z,100926.56
2023-02-04T09:14:39.971Z,100929.47
2023-02-04T09:17:12.707Z,100942.81
2023-02-04T09:19:46.839Z,100942.81
2023-02-04T09:22:19.677Z,100945.19
2023-02-04T09:24:52.556Z,100954.47
2023-02-04T09:27:25.300Z,100950.22
2023-02-04T09:29:58.330Z,100959.91
2023-02-04T09:32:31.236Z,100954.91
2023-02-04T09:35:06.035Z,100954.72
2023-02-04T09:37:39.019Z,100962.16
2023-02-04T09:40:17.119Z,100969.25
2023-02-04T09:42:51.609Z,100989.22
2023-02-04T09:45:28.062Z,100982.88
2023-02-04T09:48:04.226Z,100991.22
2023-02-04T09:50:38.595Z,100992.31
2023-02-04T09:53:15.593Z,100995.34
2023-02-04T09:55:49.788Z,100996.41
2023-02-04T09:58:26.321Z,101000.63
2023-02-04T10:01:02.505Z,101001.72
2023-02-04T10:03:35.714Z,101003.63
2023-02-04T10:06:10.533Z,101007.91
2023-02-04T10:08:45.017Z,101007.31
2023-02-04T10:11:20.662Z,101020.00
2023-02-04T10:13:56.107Z,101006.75
2023-02-04T10:16:32.852Z,101005.72
2023-02-04T10:19:08.651Z,101004.84
2023-02-04T10:21:44.752Z,100994.53
2023-02-04T10:24:19.861Z,100999.00
2023-02-04T10:26:52.685Z,100996.06
2023-02-04T10:29:25.898Z,100996.06
2023-02-04T10:31:58.782Z,100998.06
2023-02-04T10:34:37.857Z,100995.72
2023-02-04T10:37:21.256Z,100996.63
2023-02-04T10:39:54.299Z,101007.81
2023-02-04T10:42:28.616Z,101010.91
2023-02-04T10:45:01.452Z,101007.72
2023-02-04T10:47:35.967Z,101013.94
2023-02-04T10:50:18.434Z,101020.28
2023-02-04T10:52:55.323Z,101022.44
2023-02-04T10:55:28.087Z,101021.41
2023-02-04T10:58:03.479Z,101030.50
2023-02-04T11:00:36.245Z,101025.38
2023-02-04T11:03:12.986Z,101025.22
2023-02-04T11:05:45.738Z,101023.16
2023-02-04T11:08:24.100Z,101019.75
2023-02-04T11:11:00.118Z,101015.53
2023-02-04T11:13:42.025Z,101012.22
2023-02-04T11:16:26.388Z,101026.13
2023-02-04T11:19:00.904Z,101017.19
2023-02-04T11:21:44.613Z,101024.16
2023-02-04T11:24:34.556Z,101028.63
2023-02-04T11:27:19.149Z,101029.81
2023-02-04T11:29:52.718Z,101039.66
2023-02-04T11:32:32.202Z,101026.28
2023-02-04T11:35:22.173Z,101035.06
2023-02-04T11:37:56.029Z,101032.19
2023-02-04T11:40:32.639Z,101035.81
2023-02-04T11:43:12.450Z,101041.44
2023-02-04T11:45:45.636Z,101043.75
2023-02-04T11:48:20.893Z,101046.19
2023-02-04T11:50:57.907Z,101038.75
2023-02-04T11:53:32.703Z,101036.53
2023-02-04T11:56:06.974Z,101040.19
2023-02-04T11:58:41.983Z,101040.69
2023-02-04T12:01:18.660Z,101030.81
2023-02-04T12:03:57.550Z,101036.41
2023-02-04T12:06:32.987Z,101041.13
2023-02-04T12:09:07.152Z,101046.09
2023-02-04T12:11:41.270Z,101048.50
2023-02-04T12:14:18.805Z,101043.28
2023-02-04T12:16:52.682Z,101048.25
2023-02-04T12:19:27.577Z,101039.47
2023-02-04T12:22:00.842Z,101049.63
2023-02-04T12:24:33.542Z,101048.00
2023-02-04T12:27:07.631Z,101031.13
2023-02-04T12:29:40.372Z,101036.97
2023-02-04T12:32:13.155Z,101037.16
2023-02-04T12:34:45.922Z,101031.56
2023-02-04T12:37:18.664Z,101038.41
2023-02-04T12:39:51.763Z,101050.16
2023-02-04T12:42:25.852Z,101056.28
2023-02-04T12:44:58.619Z,101046.59
2023-02-04T12:47:31.348Z,101045.31
2023-02-04T12:50:04.269Z,101046.94
2023-02-04T12:52:39.064Z,101047.16
2023-02-04T12:55:11.903Z,101053.09
2023-02-04T12:57:46.459Z,101057.59
2023-02-04T13:00:21.380Z,101056.53
2023-02-04T13:02:55.895Z,101050.81
2023-02-04T13:05:29.088Z,101038.44
2023-02-04T13:08:02.036Z,101044.13
2023-02-04T13:10:34.957Z,101045.00
2023-02-04T13:13:09.284Z,101027.13
2023-02-04T13:15:42.195Z,101041.16
2023-02-04T13:18:17.383Z,101039.50
2023-02-04T13:20:50.737Z,101035.31
2023-02-04T13:23:23.586Z,101045.09
2023-02-04T13:25:56.383Z,101047.88
2023-02-04T13:28:30.484Z,101038.88
2023-02-04T13:31:04.530Z,101039.16
2023-02-04T13:33:37.370Z,101037.50
2023-02-04T13:36:10.210Z,101041.19
2023-02-04T13:38:42.958Z,101034.16
2023-02-04T13:41:15.692Z,101039.84
2023-02-04T13:43:49.879Z,101055.22
2023-02-04T13:46:22.928Z,101047.88
2023-02-04T13:48:56.155Z,101051.25
2023-02-04T13:51:29.842Z,101055.44
2023-02-04T13:54:02.709Z,101063.59
2023-02-04T13:56:36.565Z,101057.63
2023-02-04T13:59:10.667Z,101062.50
2023-02-04T14:01:43.554Z,101068.41
2023-02-04T14:04:16.380Z,101073.50
2023-02-04T14:06:49.172Z,101074.78
2023-02-04T14:09:22.614Z,101074.66
2023-02-04T14:11:55.404Z,101072.06
2023-02-04T14:14:29.666Z,101079.56
2023-02-04T14:17:02.403Z,101072.41
2023-02-04T14:19:35.330Z,101072.34
2023-02-04T14:22:12.929Z,101071.72
2023-02-04T14:24:47.745Z,101071.88
2023-02-04T14:27:22.258Z,101077.28
2023-02-04T14:29:56.399Z,101087.81
2023-02-04T14:32:29.186Z,101083.72
2023-02-04T14:35:02.119Z,101083.00
2023-02-04T14:37:34.870Z,101090.03
2023-02-04T14:40:08.936Z,101082.63
2023-02-04T14:42:42.061Z,101093.78
2023-02-04T14:45:16.228Z,101087.81
2023-02-04T14:47:48.950Z,101095.91
2023-02-04T14:53:16.447Z,101087.94
2023-02-04T14:55:49.299Z,101091.69
2023-02-04T14:58:22.273Z,101097.88
2023-02-04T15:00:56.673Z,101094.19
2023-02-04T15:03:29.622Z,101097.31
2023-02-04T15:06:02.902Z,101094.03
2023-02-04T15:08:35.910Z,101088.69
2023-02-04T15:11:08.646Z,101095.66
2023-02-04T15:13:41.461Z,101100.31
2023-02-04T15:16:15.747Z,101107.84
2023-02-04T15:18:48.752Z,101109.00
2023-02-04T15:21:21.518Z,101112.16
2023-02-04T15:23:54.274Z,101100.66
2023-02-04T15:26:27.037Z,101102.06
2023-02-04T15:28:59.794Z,101103.25
2023-02-04T15:31:34.050Z,101103.81
2023-02-04T15:34:06.877Z,101105.41
2023-02-04T15:36:39.560Z,101105.78
2023-02-04T15:39:12.491Z,101109.41
2023-02-04T15:41:45.318Z,101116.16
2023-02-04T15:44:18.109Z,101117.22
2023-02-04T15:46:52.452Z,101124.19
2023-02-04T15:49:25.214Z,101124.72
2023-02-04T15:51:58.604Z,101128.28
2023-02-04T15:54:31.660Z,101121.41
2023-02-04T15:57:04.727Z,101126.66
2023-02-04T15:59:37.585Z,101126.47
2023-02-04T16:02:12.594Z,101126.25
2023-02-04T16:04:47.881Z,101122.25
2023-02-04T16:07:20.672Z,101129.16
2023-02-04T16:09:53.422Z,101138.34
2023-02-04T16:12:26.191Z,101133.00
2023-02-04T16:14:59.333Z,101133.09
2023-02-04T16:17:34.720Z,101140.09
2023-02-04T16:20:08.885Z,101141.25
2023-02-04T16:22:41.652Z,101140.66
2023-02-04T16:25:14.422Z,101151.50
2023-02-04T16:27:47.177Z,101152.91
2023-02-04T16:30:19.901Z,101152.25
2023-02-04T16:32:54.134Z,101160.63
2023-02-04T16:35:27.104Z,101164.06
2023-02-04T16:38:00.023Z,101156.22
2023-02-04T16:40:33.176Z,101155.22
2023-02-04T16:43:06.124Z,101154.19
2023-02-04T16:45:38.878Z,101157.31
2023-02-04T16:48:13.292Z,101162.16
2023-02-04T16:50:46.044Z,101157.97
2023-02-04T16:53:18.785Z,101165.38
2023-02-04T16:55:51.534Z,101160.16
2023-02-04T16:58:24.354Z,101163.59
2023-02-04T17:00:58.523Z,101170.56
2023-02-04T17:03:32.852Z,101181.13
2023-02-04T17:06:05.914Z,101170.50
2023-02-04T17:08:38.698Z,101178.13
2023-02-04T17:11:29.809Z,101183.63
2023-02-04T17:14:04.480Z,101182.09
2023-02-04T17:16:37.702Z,101182.53
2023-02-04T17:19:12.613Z,101182.75
2023-02-04T17:21:45.751Z,101183.78
2023-02-04T17:24:18.639Z,101185.41
2023-02-04T17:26:51.418Z,101174.84
2023-02-04T17:29:24.920Z,101183.97
2023-02-04T17:31:57.758Z,101186.06
2023-02-04T17:34:31.875Z,101186.41
2023-02-04T17:37:04.719Z,101173.78
2023-02-04T17:39:37.496Z,101174.06
2023-02-04T17:42:10.393Z,101189.06
2023-02-04T17:44:43.660Z,101178.66
2023-02-04T17:47:16.627Z,101185.56
2023-02-04T17:49:50.973Z,101175.41
2023-02-04T17:52:23.804Z,101166.63
2023-02-04T17:54:56.559Z,101170.56
2023-02-04T17:57:29.519Z,101166.25
2023-02-04T18:00:03.024Z,101168.66
2023-02-04T18:02:45.344Z,101167.47
2023-02-04T18:05:22.578Z,101173.91
2023-02-04T18:08:00.984Z,101174.09
2023-02-04T18:10:36.388Z,101177.50
2023-02-04T18:13:14.837Z,101175.81
2023-02-04T18:15:50.429Z,101179.94
2023-02-04T18:18:25.393Z,101179.75
2023-02-04T18:21:02.120Z,101174.78
2023-02-04T18:23:35.138Z,101178.69
2023-02-04T18:26:13.209Z,101173.66
2023-02-04T18:28:48.407Z,101175.72
2023-02-04T18:31:35.328Z,101179.41
2023-02-04T18:34:20.680Z,101180.34
2023-02-04T18:36:55.199Z,101179.97
2023-02-04T18:39:29.727Z,101182.22
2023-02-04T18:42:02.497Z,101177.16
2023-02-04T18:44:38.043Z,101178.13
2023-02-04T18:47:29.544Z,101188.41
2023-02-04T18:50:16.591Z,101189.53
2023-02-04T18:52:50.883Z,101187.94
2023-02-04T18:55:30.618Z,101191.19
2023-02-04T18:58:26.211Z,101194.56
2023-02-04T19:01:01.867Z,101186.53
2023-02-04T19:03:42.140Z,101188.13
2023-02-04T19:06:25.060Z,101194.63
2023-02-04T19:09:09.293Z,101194.00
2023-02-04T19:11:43.704Z,101204.56
2023-02-04T19:14:22.244Z,101199.06
2023-02-04T19:17:03.227Z,101208.47
2023-02-04T19:19:38.676Z,101212.66
2023-02-04T19:22:19.747Z,101202.13
2023-02-04T19:24:58.536Z,101203.81
2023-02-04T19:27:34.289Z,101200.53
2023-02-04T19:30:41.684Z,101203.78
2023-02-04T19:33:17.925Z,101202.31
2023-02-04T19:35:50.714Z,101212.72
2023-02-04T19:38:40.405Z,101209.63
2023-02-04T19:41:28.000Z,101207.50
2023-02-04T19:44:34.654Z,101217.09
2023-02-04T19:47:30.563Z,101215.53
2023-02-04T19:50:21.605Z,101212.88
2023-02-04T19:52:58.046Z,101220.22
2023-02-04T19:55:34.429Z,101218.09
2023-02-04T19:58:20.682Z,101227.84
2023-02-04T20:00:57.838Z,101226.16
2023-02-04T20:03:40.946Z,101226.63
2023-02-04T20:06:32.700Z,101227.94
2023-02-04T20:09:11.828Z,101223.16
2023-02-04T20:11:59.662Z,101233.81
2023-02-04T20:14:47.451Z,101237.88
2023-02-04T20:17:37.301Z,101233.56
2023-02-04T20:20:27.691Z,101233.78
2023-02-04T20:23:00.938Z,101238.25
2023-02-04T20:25:54.642Z,101243.09
2023-02-04T20:28:40.163Z,101241.97
2023-02-04T20:31:29.573Z,101250.94
2023-02-04T20:34:02.437Z,101258.34
2023-02-04T20:36:38.479Z,101260.28
2023-02-04T20:39:25.125Z,101258.22
2023-02-04T20:42:21.851Z,101267.06
2023-02-04T20:44:55.584Z,101255.41
2023-02-04T20:47:35.930Z,101249.50
2023-02-04T20:50:41.207Z,101246.06
2023-02-04T20:53:25.510Z,101261.28
2023-02-04T20:56:03.834Z,101259.38
2023-02-04T20:58:38.894Z,101265.69
2023-02-04T21:01:23.136Z,101270.03
2023-02-04T21:03:57.928Z,101262.41
2023-02-04T21:06:36.279Z,101271.91
2023-02-04T21:09:21.978Z,101267.13
2023-02-04T21:11:56.152Z,101270.59
2023-02-04T21:14:30.192Z,101262.38
2023-02-04T21:17:03.398Z,101267.28
2023-02-04T21:19:37.607Z,101276.16
2023-02-04T21:22:10.314Z,101274.22
2023-02-04T21:24:44.648Z,101263.97
2023-02-04T21:27:21.954Z,101262.91
2023-02-04T21:29:54.730Z,101266.47
2023-02-04T21:32:27.476Z,101272.94
2023-02-04T21:35:01.598Z,101274.97
2023-02-04T21:37:34.402Z,101275.22
2023-02-04T21:40:08.259Z,101280.59
2023-02-04T21:42:40.977Z,101287.00
2023-02-04T21:45:13.715Z,101294.16
2023-02-04T21:47:47.228Z,101288.22
2023-02-04T21:50:23.034Z,101282.50
2023-02-04T21:52:56.000Z,101281.25
2023-02-04T21:55:29.869Z,101282.50
2023-02-04T21:58:02.683Z,101284.19
2023-02-04T22:00:35.984Z,101287.88
2023-02-04T22:03:12.976Z,101279.47
2023-02-04T22:05:47.148Z,101282.44
2023-02-04T22:08:19.975Z,101275.75
2023-02-04T22:10:52.784Z,101279.25
2023-02-04T22:13:25.543Z,101278.31
2023-02-04T22:15:58.341Z,101276.63
2023-02-04T22:18:31.282Z,101279.13
2023-02-04T22:21:05.619Z,101277.47
2023-02-04T22:23:39.659Z,101276.25
2023-02-04T22:26:12.571Z,101271.19
2023-02-04T22:28:45.432Z,101272.66
2023-02-04T22:31:18.301Z,101269.50
2023-02-04T22:33:51.135Z,101268.50
2023-02-04T22:36:25.301Z,101259.59
2023-02-04T22:38:58.076Z,101272.00
2023-02-04T22:41:30.862Z,101275.97
2023-02-04T22:44:04.232Z,101274.94
2023-02-04T22:46:37.019Z,101280.25
2023-02-04T22:49:09.932Z,101285.13
2023-02-04T22:51:44.172Z,101281.97
2023-02-04T22:54:17.054Z,101288.03
2023-02-04T22:56:49.820Z,101282.78
2023-02-04T22:59:22.622Z,101278.88
2023-02-04T23:01:55.733Z,101278.88
2023-02-04T23:04:28.615Z,101277.03
2023-02-04T23:07:04.729Z,101274.38
2023-02-04T23:09:37.678Z,101268.75
2023-02-04T23:12:16.369Z,101267.72
2023-02-04T23:14:50.027Z,101265.88
2023-02-04T23:17:23.571Z,101264.59
2023-02-04T23:19:56.543Z,101263.06
2023-02-04T23:22:30.748Z,101263.78
2023-02-04T23:25:06.196Z,101256.75
2023-02-04T23:27:40.124Z,101259.00
2023-02-04T23:30:14.568Z,101257.50
2023-02-04T23:32:47.581Z,101257.78
2023-02-04T23:35:20.908Z,101267.75
2023-02-04T23:37:55.059Z,101269.13
2023-02-04T23:40:27.825Z,101275.78
2023-02-04T23:43:00.584Z,101271.75
2023-02-04T23:45:33.663Z,101266.28
2023-02-04T23:48:07.328Z,101259.78
2023-02-04T23:50:40.065Z,101268.25
2023-02-04T23:53:14.332Z,101264.38
2023-02-04T23:55:47.406Z,101264.13
2023-02-04T23:58:20.231Z,101258.75
